createdAt,value
2023-03-03T00:01:49.844Z,46.10
2023-03-03T00:04:16.309Z,46.05
2023-03-03T00:06:45.007Z,46.42
2023-03-03T00:09:11.545Z,45.20
2023-03-03T00:11:38.182Z,44.17
2023-03-03T00:14:18.728Z,46.50
2023-03-03T00:16:45.443Z,45.33
2023-03-03T00:19:17.481Z,44.78
2023-03-03T00:21:49.485Z,44.35
2023-03-03T00:24:20.410Z,46.95
2023-03-03T00:26:57.515Z,44.67
2023-03-03T00:29:31.225Z,45.13
2023-03-03T00:32:23.913Z,45.78
2023-03-03T00:34:52.164Z,47.05
2023-03-03T00:37:29.467Z,44.45
2023-03-03T00:40:24.105Z,43.90
2023-03-03T00:42:53.659Z,39.83
2023-03-03T00:45:32.128Z,43.50
2023-03-03T00:47:59.238Z,44.22
2023-03-03T00:50:31.489Z,43.50
2023-03-03T00:53:28.451Z,43.15
2023-03-03T00:55:55.857Z,42.80
2023-03-03T00:58:23.491Z,43.85
2023-03-03T01:00:52.825Z,43.63
2023-03-03T01:03:24.991Z,44.92
2023-03-03T01:05:53.339Z,47.70
2023-03-03T01:08:21.483Z,45.58
2023-03-03T01:10:51.048Z,46.20
2023-03-03T01:13:19.693Z,43.75
2023-03-03T01:15:46.382Z,42.53
2023-03-03T01:18:13.782Z,44.15
2023-03-03T01:20:40.534Z,37.05
2023-03-03T01:23:07.314Z,42.15
2023-03-03T01:25:34.204Z,41.83
2023-03-03T01:28:00.762Z,40.28
2023-03-03T01:30:27.860Z,43.17
2023-03-03T01:32:54.451Z,47.55
2023-03-03T01:35:21.422Z,46.38
2023-03-03T01:37:48.092Z,41.75
2023-03-03T01:40:18.289Z,43.15
2023-03-03T01:42:44.859Z,43.67
2023-03-03T01:45:16.633Z,45.33
2023-03-03T01:47:51.779Z,44.83
2023-03-03T01:50:50.178Z,41.80
2023-03-03T01:53:42.323Z,43.50
2023-03-03T01:56:10.034Z,42.63
2023-03-03T01:58:40.441Z,46.25
2023-03-03T02:01:09.591Z,43.88
2023-03-03T02:03:36.435Z,46.70
2023-03-03T02:06:06.778Z,42.75
2023-03-03T02:08:52.890Z,45.90
2023-03-03T02:11:20.906Z,44.50
2023-03-03T02:13:47.730Z,46.33
2023-03-03T02:16:14.685Z,45.10
2023-03-03T02:18:41.366Z,49.00
2023-03-03T02:21:15.486Z,50.33
2023-03-03T02:24:01.564Z,47.75
2023-03-03T02:26:30.580Z,48.63
2023-03-03T02:29:02.283Z,45.42
2023-03-03T02:31:30.625Z,48.42
2023-03-03T02:33:57.883Z,44.78
2023-03-03T02:36:32.146Z,43.38
2023-03-03T02:39:20.903Z,45.42
2023-03-03T02:41:55.985Z,40.58
2023-03-03T02:44:27.330Z,44.30
2023-03-03T02:46:55.076Z,45.25
2023-03-03T02:49:27.143Z,45.63
2023-03-03T02:51:54.229Z,42.42
2023-03-03T02:54:23.474Z,45.50
2023-03-03T02:56:51.140Z,43.45
2023-03-03T02:59:17.847Z,42.80
2023-03-03T03:01:49.601Z,41.20
2023-03-03T03:04:20.590Z,43.33
2023-03-03T03:06:49.751Z,44.80
2023-03-03T03:09:18.557Z,44.55
2023-03-03T03:11:46.599Z,44.58
2023-03-03T03:14:15.726Z,43.15
2023-03-03T03:16:43.579Z,40.28
2023-03-03T03:19:11.070Z,45.65
2023-03-03T03:21:38.734Z,43.83
2023-03-03T03:24:06.977Z,44.60
2023-03-03T03:26:35.253Z,45.70
2023-03-03T03:29:02.643Z,43.58
2023-03-03T03:31:29.239Z,46.50
2023-03-03T03:33:55.824Z,48.60
2023-03-03T03:36:23.583Z,46.50
2023-03-03T03:38:52.276Z,42.20
2023-03-03T03:41:18.769Z,45.38
2023-03-03T03:43:46.600Z,44.60
2023-03-03T03:46:13.997Z,47.05
2023-03-03T03:48:40.509Z,43.35
2023-03-03T03:51:11.885Z,43.90
2023-03-03T03:53:39.455Z,45.88
2023-03-03T03:56:06.403Z,45.33
2023-03-03T03:58:33.854Z,41.78
2023-03-03T04:01:06.452Z,42.00
2023-03-03T04:03:36.209Z,47.38
2023-03-03T04:06:06.351Z,45.70
2023-03-03T04:08:33.656Z,46.17
2023-03-03T04:11:00.976Z,42.30
2023-03-03T04:13:31.794Z,44.58
2023-03-03T04:15:59.319Z,43.10
2023-03-03T04:18:26.015Z,44.60
2023-03-03T04:20:54.545Z,45.38
2023-03-03T04:23:21.432Z,45.80
2023-03-03T04:25:48.946Z,44.53
2023-03-03T04:28:16.686Z,45.88
2023-03-03T04:30:44.280Z,47.72
2023-03-03T04:33:11.272Z,47.63
2023-03-03T04:35:39.890Z,47.88
2023-03-03T04:38:07.115Z,48.65
2023-03-03T04:40:35.260Z,52.38
2023-03-03T04:43:04.077Z,48.13
2023-03-03T04:45:30.875Z,46.67
2023-03-03T04:47:57.589Z,46.88
2023-03-03T04:50:24.342Z,48.38
2023-03-03T04:52:51.773Z,45.13
2023-03-03T04:55:21.557Z,46.35
2023-03-03T04:57:48.892Z,45.67
2023-03-03T05:00:16.086Z,44.00
2023-03-03T05:02:43.623Z,37.17
2023-03-03T05:05:11.473Z,38.53
2023-03-03T05:07:39.155Z,44.97
2023-03-03T05:10:08.156Z,46.08
2023-03-03T05:12:34.770Z,41.30
2023-03-03T05:15:02.712Z,42.08
2023-03-03T05:17:29.636Z,44.65
2023-03-03T05:19:57.255Z,38.35
2023-03-03T05:22:24.554Z,45.85
2023-03-03T05:24:51.512Z,44.20
2023-03-03T05:27:18.116Z,42.25
2023-03-03T05:29:45.212Z,43.40
2023-03-03T05:32:12.428Z,44.47
2023-03-03T05:34:39.138Z,43.97
2023-03-03T05:37:07.345Z,41.42
2023-03-03T05:39:34.794Z,46.95
2023-03-03T05:42:02.523Z,42.33
2023-03-03T05:44:29.773Z,43.63
2023-03-03T05:46:57.693Z,40.33
2023-03-03T05:49:26.716Z,46.92
2023-03-03T05:51:54.774Z,45.33
2023-03-03T05:54:21.802Z,45.53
2023-03-03T05:56:48.390Z,39.75
2023-03-03T05:59:15.150Z,37.47
2023-03-03T06:01:41.772Z,36.40
2023-03-03T06:04:10.892Z,37.10
2023-03-03T06:06:37.782Z,33.25
2023-03-03T06:09:05.006Z,29.20
2023-03-03T06:11:31.740Z,28.50
2023-03-03T06:13:58.756Z,29.17
2023-03-03T06:16:26.049Z,29.42
2023-03-03T06:18:52.681Z,25.73
2023-03-03T06:21:19.227Z,27.15
2023-03-03T06:23:46.489Z,27.65
2023-03-03T06:26:13.264Z,27.83
2023-03-03T06:28:39.886Z,27.92
2023-03-03T06:31:06.476Z,27.63
2023-03-03T06:33:32.978Z,22.23
2023-03-03T06:35:59.747Z,21.42
2023-03-03T06:38:26.364Z,23.55
2023-03-03T06:40:52.911Z,21.77
2023-03-03T06:43:19.522Z,23.02
2023-03-03T06:45:46.821Z,23.05
2023-03-03T06:48:15.350Z,20.52
2023-03-03T06:50:42.416Z,21.65
2023-03-03T06:53:14.128Z,24.13
2023-03-03T06:55:44.539Z,25.38
2023-03-03T06:58:16.114Z,25.45
2023-03-03T07:00:44.319Z,25.45
2023-03-03T07:03:17.660Z,28.30
2023-03-03T07:05:44.814Z,29.10
2023-03-03T07:08:17.364Z,29.27
2023-03-03T07:10:44.809Z,29.02
2023-03-03T07:13:27.349Z,28.30
2023-03-03T07:15:56.114Z,29.75
2023-03-03T07:18:33.801Z,30.27
2023-03-03T07:21:08.808Z,31.88
2023-03-03T07:23:45.011Z,29.92
2023-03-03T07:26:13.424Z,30.30
2023-03-03T07:28:45.404Z,29.20
2023-03-03T07:31:39.550Z,30.20
2023-03-03T07:34:21.666Z,31.88
2023-03-03T07:36:50.084Z,31.25
2023-03-03T07:39:32.304Z,31.67
2023-03-03T07:42:09.530Z,32.28
2023-03-03T07:44:37.722Z,31.35
2023-03-03T07:47:26.270Z,30.50
2023-03-03T07:49:55.308Z,31.33
2023-03-03T07:52:25.100Z,29.13
2023-03-03T07:54:51.947Z,32.55
2023-03-03T07:57:39.909Z,31.05
2023-03-03T08:00:16.383Z,32.53
2023-03-03T08:03:05.979Z,29.98
2023-03-03T08:05:37.130Z,28.63
2023-03-03T08:10:44.514Z,27.02
2023-03-03T08:13:44.818Z,27.30
2023-03-03T08:16:11.283Z,29.02
2023-03-03T08:18:46.761Z,31.98
2023-03-03T08:21:25.857Z,28.70
2023-03-03T08:23:53.808Z,28.00
2023-03-03T08:26:22.301Z,28.58
2023-03-03T08:28:48.851Z,27.17
2023-03-03T08:31:30.836Z,30.27
2023-03-03T08:34:04.545Z,28.48
2023-03-03T08:36:33.663Z,28.67
2023-03-03T08:39:01.371Z,30.83
2023-03-03T08:41:27.969Z,37.38
2023-03-03T08:43:54.508Z,39.15
2023-03-03T08:46:21.119Z,38.53
2023-03-03T08:48:47.709Z,40.63
2023-03-03T08:51:14.708Z,38.03
2023-03-03T08:53:41.683Z,39.75
2023-03-03T08:56:10.218Z,41.67
2023-03-03T08:58:36.873Z,38.13
2023-03-03T09:01:05.416Z,38.10
2023-03-03T09:03:35.025Z,40.00
2023-03-03T09:06:01.600Z,47.08
2023-03-03T09:08:31.072Z,47.53
2023-03-03T09:10:57.601Z,45.40
2023-03-03T09:13:24.162Z,48.67
2023-03-03T09:15:51.010Z,44.50
2023-03-03T09:18:37.084Z,45.00
2023-03-03T09:21:22.696Z,43.67
2023-03-03T09:23:59.163Z,43.30
2023-03-03T09:26:37.467Z,45.00
2023-03-03T09:29:09.909Z,45.95
2023-03-03T09:31:54.379Z,47.55
2023-03-03T09:34:36.108Z,49.22
2023-03-03T09:37:25.268Z,50.15
2023-03-03T09:39:53.547Z,43.63
2023-03-03T09:42:29.092Z,44.35
2023-03-03T09:45:17.873Z,45.33
2023-03-03T09:47:53.522Z,47.40
2023-03-03T09:50:34.619Z,45.28
2023-03-03T09:53:12.396Z,44.60
2023-03-03T09:56:13.364Z,47.65
2023-03-03T09:58:58.351Z,41.15
2023-03-03T10:01:57.872Z,40.95
2023-03-03T10:04:33.283Z,39.78
2023-03-03T10:07:04.337Z,42.33
2023-03-03T10:10:08.541Z,42.53
2023-03-03T10:13:12.522Z,41.78
2023-03-03T10:16:00.208Z,39.92
2023-03-03T10:18:33.520Z,41.92
2023-03-03T10:21:05.824Z,40.35
2023-03-03T10:23:45.253Z,39.88
2023-03-03T10:27:05.462Z,40.25
2023-03-03T10:30:05.710Z,35.72
2023-03-03T10:32:38.291Z,38.72
2023-03-03T10:35:26.517Z,39.05
2023-03-03T10:37:55.881Z,37.20
2023-03-03T10:40:37.339Z,41.42
2023-03-03T10:43:32.650Z,41.38
2023-03-03T10:46:12.690Z,36.90
2023-03-03T10:48:54.475Z,39.45
2023-03-03T10:51:48.596Z,40.53
2023-03-03T10:54:21.015Z,40.03
2023-03-03T10:57:13.794Z,56.15
2023-03-03T10:59:45.123Z,54.53
2023-03-03T11:02:18.627Z,49.55
2023-03-03T11:04:49.571Z,46.40
2023-03-03T11:07:25.135Z,44.08
2023-03-03T11:10:15.043Z,45.63
2023-03-03T11:13:10.046Z,43.10
2023-03-03T11:15:47.477Z,43.70
2023-03-03T11:18:32.378Z,41.60
2023-03-03T11:20:59.708Z,41.67
2023-03-03T11:24:10.656Z,42.55
2023-03-03T11:26:43.123Z,50.50
2023-03-03T11:29:35.267Z,57.28
2023-03-03T11:32:27.308Z,50.67
2023-03-03T11:35:17.273Z,53.58
2023-03-03T11:37:57.195Z,50.53
2023-03-03T11:40:32.450Z,42.30
2023-03-03T11:43:10.651Z,41.45
2023-03-03T11:45:44.222Z,38.53
2023-03-03T11:48:47.865Z,41.65
2023-03-03T11:51:27.799Z,38.70
2023-03-03T11:54:00.193Z,39.42
2023-03-03T11:56:38.972Z,41.05
2023-03-03T11:59:44.234Z,43.17
2023-03-03T12:02:43.936Z,41.97
2023-03-03T12:05:29.292Z,40.85
2023-03-03T12:08:31.804Z,38.92
2023-03-03T12:11:10.406Z,41.38
2023-03-03T12:13:43.089Z,42.50
2023-03-03T12:16:20.868Z,44.35
2023-03-03T12:19:03.309Z,39.83
2023-03-03T12:22:02.266Z,37.80
2023-03-03T12:24:46.504Z,37.88
2023-03-03T12:27:35.941Z,36.78
2023-03-03T12:30:38.690Z,38.10
2023-03-03T12:33:22.209Z,41.63
2023-03-03T12:36:06.327Z,39.58
2023-03-03T12:38:49.530Z,42.63
2023-03-03T12:41:21.210Z,43.08
2023-03-03T12:43:54.478Z,41.05
2023-03-03T12:46:29.489Z,42.63
2023-03-03T12:48:56.251Z,41.92
2023-03-03T12:51:50.284Z,43.97
2023-03-03T12:54:37.782Z,47.22
2023-03-03T12:57:29.100Z,47.63
2023-03-03T13:00:10.919Z,47.63
2023-03-03T13:03:10.047Z,47.42
2023-03-03T13:05:48.598Z,49.65
2023-03-03T13:08:31.399Z,49.25
2023-03-03T13:11:18.872Z,55.85
2023-03-03T13:13:53.643Z,53.03
2023-03-03T13:16:44.720Z,53.35
2023-03-03T13:19:31.781Z,58.50
2023-03-03T13:22:14.636Z,57.35
2023-03-03T13:25:00.050Z,54.25
2023-03-03T13:27:33.019Z,52.40
2023-03-03T13:30:04.100Z,53.47
2023-03-03T13:32:58.484Z,48.63
2023-03-03T13:35:42.429Z,51.03
2023-03-03T13:38:14.512Z,56.72
2023-03-03T13:40:49.157Z,53.08
2023-03-03T13:43:20.138Z,52.97
2023-03-03T13:45:49.427Z,48.95
2023-03-03T13:48:27.781Z,52.60
2023-03-03T13:50:58.300Z,49.13
2023-03-03T13:53:49.767Z,53.20
2023-03-03T13:56:35.286Z,54.60
2023-03-03T13:59:20.564Z,57.38
2023-03-03T14:02:15.368Z,56.97
2023-03-03T14:04:50.922Z,54.38
2023-03-03T14:07:33.503Z,56.08
2023-03-03T14:10:12.937Z,53.72
2023-03-03T14:13:02.466Z,56.28
2023-03-03T14:15:36.712Z,53.25
2023-03-03T14:18:32.087Z,51.88
2023-03-03T14:21:12.296Z,50.15
2023-03-03T14:23:50.451Z,50.20
2023-03-03T14:26:17.396Z,47.72
2023-03-03T14:28:49.973Z,46.83
2023-03-03T14:31:23.461Z,49.05
2023-03-03T14:34:14.493Z,47.00
2023-03-03T14:36:43.333Z,47.15
2023-03-03T14:39:28.759Z,45.95
2023-03-03T14:41:57.511Z,42.53
2023-03-03T14:44:36.946Z,40.28
2023-03-03T14:47:09.369Z,43.72
2023-03-03T14:49:38.503Z,42.42
2023-03-03T14:52:19.853Z,40.35
2023-03-03T14:57:37.456Z,38.25
2023-03-03T15:00:33.007Z,39.67
2023-03-03T15:03:22.535Z,38.40
2023-03-03T15:05:51.433Z,38.33
2023-03-03T15:08:30.066Z,35.55
2023-03-03T15:11:15.751Z,36.92
2023-03-03T15:13:42.418Z,34.13
2023-03-03T15:16:23.928Z,35.70
2023-03-03T15:19:11.689Z,35.60
2023-03-03T15:21:45.997Z,34.65
2023-03-03T15:24:26.636Z,34.78
2023-03-03T15:26:59.084Z,35.70
2023-03-03T15:29:28.413Z,33.15
2023-03-03T15:32:24.121Z,32.03
2023-03-03T15:34:59.872Z,33.90
2023-03-03T15:38:05.328Z,33.42
2023-03-03T15:40:39.864Z,32.20
2023-03-03T15:43:11.413Z,33.08
2023-03-03T15:45:46.633Z,33.42
2023-03-03T15:48:28.167Z,32.95
2023-03-03T15:51:11.753Z,31.83
2023-03-03T15:54:03.115Z,33.35
2023-03-03T15:59:23.612Z,31.27
2023-03-03T16:01:56.244Z,30.98
2023-03-03T16:04:26.404Z,28.77
2023-03-03T16:07:06.513Z,28.52
2023-03-03T16:09:39.843Z,28.23
2023-03-03T16:12:21.347Z,26.75
2023-03-03T16:15:15.070Z,26.58
2023-03-03T16:17:56.716Z,24.77
2023-03-03T16:20:51.317Z,24.38
2023-03-03T16:23:26.789Z,24.33
2023-03-03T16:26:28.855Z,23.02
2023-03-03T16:29:13.949Z,22.08
2023-03-03T16:31:45.737Z,22.20
2023-03-03T16:34:33.433Z,21.85
2023-03-03T16:37:21.596Z,22.15
2023-03-03T16:40:00.441Z,22.95
2023-03-03T16:42:32.420Z,22.92
2023-03-03T16:47:58.595Z,26.00
2023-03-03T16:50:39.873Z,26.60
2023-03-03T16:55:45.956Z,24.83
2023-03-03T16:58:53.924Z,25.42
2023-03-03T17:01:57.977Z,24.42
2023-03-03T17:04:39.569Z,22.95
2023-03-03T17:07:33.833Z,23.13
2023-03-03T17:10:23.216Z,23.33
2023-03-03T17:12:52.849Z,20.30
2023-03-03T17:15:25.164Z,18.63
2023-03-03T17:18:03.764Z,19.98
2023-03-03T17:20:42.225Z,19.38
2023-03-03T17:23:40.534Z,19.77
2023-03-03T17:26:16.110Z,18.38
2023-03-03T17:29:11.713Z,19.73
2023-03-03T17:31:50.785Z,19.20
2023-03-03T17:34:25.984Z,19.30
2023-03-03T17:37:19.163Z,20.02
2023-03-03T17:40:33.171Z,19.60
2023-03-03T17:43:03.790Z,19.88
2023-03-03T17:45:35.129Z,23.20
2023-03-03T17:48:20.259Z,22.67
2023-03-03T17:50:57.286Z,22.35
2023-03-03T17:53:42.136Z,22.38
2023-03-03T17:56:24.720Z,21.63
2023-03-03T17:59:10.648Z,19.40
2023-03-03T18:01:59.132Z,20.52
2023-03-03T18:04:27.918Z,19.70
2023-03-03T18:07:20.890Z,21.50
2023-03-03T18:10:33.384Z,21.98
2023-03-03T18:13:29.105Z,21.50
2023-03-03T18:16:19.228Z,23.88
2023-03-03T18:19:11.646Z,22.85
2023-03-03T18:21:54.016Z,22.08
2023-03-03T18:24:38.332Z,23.52
2023-03-03T18:27:31.297Z,23.10
2023-03-03T18:30:16.676Z,21.48
2023-03-03T18:32:55.200Z,21.55
2023-03-03T18:35:33.634Z,23.77
2023-03-03T18:38:15.518Z,22.35
2023-03-03T18:40:59.110Z,24.35
2023-03-03T18:43:43.690Z,22.83
2023-03-03T18:46:36.095Z,22.95
2023-03-03T18:49:10.301Z,23.92
2023-03-03T18:51:39.717Z,24.63
2023-03-03T18:54:12.150Z,26.02
2023-03-03T18:56:50.041Z,27.27
2023-03-03T18:59:31.766Z,25.92
2023-03-03T19:02:13.910Z,26.20
2023-03-03T19:04:42.825Z,25.90
2023-03-03T19:07:12.217Z,25.52
2023-03-03T19:09:56.872Z,24.65
2023-03-03T19:12:47.662Z,25.55
2023-03-03T19:15:38.693Z,25.95
2023-03-03T19:18:18.763Z,27.98
2023-03-03T19:20:48.183Z,24.92
2023-03-03T19:23:16.566Z,26.42
2023-03-03T19:25:43.065Z,26.33
2023-03-03T19:28:15.390Z,27.63
2023-03-03T19:31:01.336Z,30.75
2023-03-03T19:34:06.318Z,31.25
2023-03-03T19:36:51.571Z,32.95
2023-03-03T19:39:35.309Z,32.22
2023-03-03T19:42:42.208Z,29.20
2023-03-03T19:45:35.315Z,21.83
2023-03-03T19:48:35.021Z,28.92
2023-03-03T19:51:07.467Z,28.48
2023-03-03T19:53:52.234Z,27.15
2023-03-03T19:56:19.651Z,26.52
2023-03-03T19:59:13.638Z,26.65
2023-03-03T20:01:59.681Z,24.92
2023-03-03T20:04:52.199Z,25.55
2023-03-03T20:07:23.861Z,25.55
2023-03-03T20:09:54.598Z,27.70
2023-03-03T20:12:39.476Z,27.23
2023-03-03T20:15:15.038Z,26.45
2023-03-03T20:17:50.394Z,22.95
2023-03-03T20:20:28.990Z,25.13
2023-03-03T20:26:57.417Z,24.20
2023-03-03T20:30:03.799Z,28.77
2023-03-03T20:32:58.330Z,27.45
2023-03-03T20:35:30.911Z,27.02
2023-03-03T20:38:03.422Z,26.38
2023-03-03T20:40:39.349Z,25.38
2023-03-03T20:43:34.176Z,24.75
2023-03-03T20:46:15.536Z,24.50
2023-03-03T20:49:19.928Z,24.67
2023-03-03T20:52:27.887Z,24.90
2023-03-03T20:55:12.812Z,24.90
2023-03-03T20:57:49.880Z,23.45
2023-03-03T21:00:29.072Z,23.83
2023-03-03T21:03:04.189Z,21.90
2023-03-03T21:05:30.768Z,17.15
2023-03-03T21:08:08.010Z,14.35
2023-03-03T21:10:36.548Z,14.27
2023-03-03T21:13:32.181Z,14.27
2023-03-03T21:16:06.527Z,13.88
2023-03-03T21:18:33.110Z,13.77
2023-03-03T21:20:59.759Z,12.43
2023-03-03T21:23:26.328Z,14.38
2023-03-03T21:25:54.182Z,12.50
2023-03-03T21:28:22.490Z,15.40
2023-03-03T21:31:10.252Z,14.15
2023-03-03T21:33:54.396Z,14.57
2023-03-03T21:36:44.672Z,14.82
2023-03-03T21:39:29.799Z,15.10
2023-03-03T21:42:29.167Z,15.52
2023-03-03T21:44:55.793Z,17.35
2023-03-03T21:47:23.829Z,17.52
2023-03-03T21:49:51.811Z,19.77
2023-03-03T21:52:21.048Z,21.55
2023-03-03T21:54:49.728Z,19.95
2023-03-03T21:57:16.596Z,20.58
2023-03-03T21:59:43.131Z,20.52
2023-03-03T22:02:10.465Z,20.73
2023-03-03T22:04:40.760Z,21.42
2023-03-03T22:07:07.902Z,19.53
2023-03-03T22:09:34.981Z,20.02
2023-03-03T22:12:03.327Z,19.50
2023-03-03T22:14:29.930Z,18.90
2023-03-03T22:16:57.213Z,19.60
2023-03-03T22:19:23.900Z,18.38
2023-03-03T22:21:51.022Z,19.05
2023-03-03T22:24:17.776Z,18.60
2023-03-03T22:26:44.427Z,18.42
2023-03-03T22:29:11.244Z,17.85
2023-03-03T22:31:37.912Z,17.77
2023-03-03T22:34:04.680Z,18.63
2023-03-03T22:36:31.307Z,16.98
2023-03-03T22:38:57.896Z,17.50
2023-03-03T22:41:24.594Z,16.52
2023-03-03T22:43:51.367Z,18.38
2023-03-03T22:46:18.079Z,17.13
2023-03-03T22:48:46.883Z,16.48
2023-03-03T22:51:13.391Z,9.07
2023-03-03T22:53:40.686Z,5.63
2023-03-03T22:56:07.706Z,5.32
2023-03-03T22:58:34.684Z,4.90
2023-03-03T23:01:02.427Z,4.53
2023-03-03T23:03:29.080Z,4.65
2023-03-03T23:05:55.730Z,4.50
2023-03-03T23:08:22.314Z,4.68
2023-03-03T23:10:49.208Z,4.32
2023-03-03T23:13:15.897Z,4.40
2023-03-03T23:15:42.746Z,3.80
2023-03-03T23:18:09.550Z,3.90
2023-03-03T23:20:36.767Z,4.03
2023-03-03T23:23:03.665Z,4.40
2023-03-03T23:25:31.305Z,3.63
2023-03-03T23:27:58.421Z,3.53
2023-03-03T23:30:25.625Z,4.20
2023-03-03T23:32:52.445Z,3.70
2023-03-03T23:35:19.769Z,3.42
2023-03-03T23:37:46.363Z,4.03
2023-03-03T23:40:14.743Z,4.30
2023-03-03T23:42:41.278Z,3.95
2023-03-03T23:45:09.201Z,3.47
2023-03-03T23:47:36.474Z,4.40
2023-03-03T23:50:03.543Z,3.78
2023-03-03T23:52:30.097Z,3.63
2023-03-03T23:54:56.718Z,3.85
2023-03-03T23:57:23.510Z,4.32
2023-03-03T23:59:50.148Z,4.38
